Flight Briefing for CMB810

Departure Arrival
Ramstein Air Force Base (ETAR)
Click to view FAA NOTAMS
Joint Base McGuire Dix Lakehurst (KWRI)
Click to view FAA NOTAMS
Departure Time Arrival Time
N/A N/A
Aircraft Distance
B767-300BDSF 3394nm
Departure METAR Arrival METAR
ETAR 232356Z AUTO 10003KT 9999 SCT130 BKN160 10/09 A3001 RMK AO2 SLP163 T00960087 10194 20086 58005 $ KWRI 232356Z AUTO 00000KT 10SM CLR 20/20 A2989 RMK AO2 SLP121 60021 T02000200 10221 20186 56027
Suggested Route





View recent IFR Routes data
Notes
USTRANSCOM CONTRACT FLIGHT

Charts and Procedures

Charts for ETAR
No chart available
Charts for KWRI
No chart available

Windy.com Weather Map